createdAt,value
2023-05-15T00:00:43.370Z,101253.30
2023-05-15T00:03:13.672Z,101245.84
2023-05-15T00:05:44.210Z,101238.25
2023-05-15T00:08:14.538Z,101241.28
2023-05-15T00:10:57.536Z,101236.28
2023-05-15T00:13:15.695Z,101231.31
2023-05-15T00:15:46.286Z,101228.07
2023-05-15T00:18:16.976Z,101231.01
2023-05-15T00:20:47.051Z,101226.30
2023-05-15T00:23:17.100Z,101224.32
2023-05-15T00:25:47.368Z,101224.71
2023-05-15T00:28:18.060Z,101216.97
2023-05-15T00:30:48.555Z,101217.41
2023-05-15T00:33:18.809Z,101210.09
2023-05-15T00:35:49.564Z,101207.94
2023-05-15T00:38:20.079Z,101209.94
2023-05-15T00:40:50.436Z,101205.59
2023-05-15T00:43:21.008Z,101203.45
2023-05-15T00:45:51.823Z,101200.06
2023-05-15T00:48:22.318Z,101201.29
2023-05-15T00:50:52.765Z,101195.62
2023-05-15T00:53:22.957Z,101193.45
2023-05-15T00:55:54.209Z,101197.62
2023-05-15T00:58:24.498Z,101196.46
2023-05-15T01:00:55.301Z,101195.68
2023-05-15T01:03:25.342Z,101195.69
2023-05-15T01:05:55.469Z,101193.80
2023-05-15T01:08:25.760Z,101190.10
2023-05-15T01:10:56.457Z,101184.76
2023-05-15T01:13:26.897Z,101184.89
2023-05-15T01:15:57.224Z,101181.03
2023-05-15T01:18:27.707Z,101181.65
2023-05-15T01:20:58.154Z,101182.11
2023-05-15T01:23:28.205Z,101185.40
2023-05-15T01:25:58.319Z,101183.00
2023-05-15T01:28:28.704Z,101184.36
2023-05-15T01:30:59.456Z,101182.60
2023-05-15T01:33:29.622Z,101183.04
2023-05-15T01:35:59.590Z,101181.90
2023-05-15T01:38:30.146Z,101180.93
2023-05-15T01:41:00.598Z,101182.96
2023-05-15T01:43:31.013Z,101181.97
2023-05-15T01:46:01.180Z,101179.04
2023-05-15T01:48:31.897Z,101181.25
2023-05-15T01:51:02.408Z,101175.04
2023-05-15T01:53:33.032Z,101175.59
2023-05-15T01:56:04.062Z,101176.65
2023-05-15T01:58:34.650Z,101178.80
2023-05-15T02:01:04.879Z,101179.37
2023-05-15T02:03:35.327Z,101173.93
2023-05-15T02:06:05.834Z,101175.54
2023-05-15T02:08:36.259Z,101180.88
2023-05-15T02:11:06.345Z,101187.41
2023-05-15T02:13:37.149Z,101188.64
2023-05-15T02:16:07.859Z,101184.14
2023-05-15T02:18:37.885Z,101180.83
2023-05-15T02:21:07.867Z,101175.90
2023-05-15T02:23:38.732Z,101178.62
2023-05-15T02:26:09.365Z,101178.94
2023-05-15T02:28:39.428Z,101179.77
2023-05-15T02:31:09.705Z,101174.26
2023-05-15T02:33:40.574Z,101174.07
2023-05-15T02:36:11.164Z,101172.85
2023-05-15T02:38:41.597Z,101172.34
2023-05-15T02:41:12.497Z,101169.96
2023-05-15T02:43:43.277Z,101170.27
2023-05-15T02:46:13.342Z,101174.53
2023-05-15T02:48:43.619Z,101175.83
2023-05-15T02:51:14.464Z,101175.88
2023-05-15T02:53:44.574Z,101173.77
2023-05-15T02:56:15.480Z,101175.06
2023-05-15T02:58:46.147Z,101175.25
2023-05-15T03:01:16.915Z,101175.85
2023-05-15T03:03:46.969Z,101177.58
2023-05-15T03:06:17.063Z,101179.15
2023-05-15T03:08:47.839Z,101175.00
2023-05-15T03:11:18.728Z,101174.54
2023-05-15T03:13:49.470Z,101174.09
2023-05-15T03:16:20.062Z,101171.32
2023-05-15T03:18:50.815Z,101172.84
2023-05-15T03:21:21.178Z,101170.48
2023-05-15T03:23:51.242Z,101169.72
2023-05-15T03:26:21.436Z,101171.52
2023-05-15T03:28:52.226Z,101170.53
2023-05-15T03:31:22.680Z,101173.06
2023-05-15T03:33:52.817Z,101169.13
2023-05-15T03:36:23.172Z,101165.26
2023-05-15T03:38:53.392Z,101170.82
2023-05-15T03:41:23.633Z,101170.38
2023-05-15T03:43:54.073Z,101165.58
2023-05-15T03:46:24.401Z,101165.30
2023-05-15T03:48:55.220Z,101166.32
2023-05-15T03:51:25.725Z,101170.36
2023-05-15T03:53:56.233Z,101174.34
2023-05-15T03:56:26.679Z,101174.65
2023-05-15T03:58:57.530Z,101170.23
2023-05-15T04:01:27.715Z,101172.79
2023-05-15T04:03:57.938Z,101169.79
2023-05-15T04:06:27.958Z,101167.51
2023-05-15T04:08:58.551Z,101165.88
2023-05-15T04:11:28.904Z,101164.73
2023-05-15T04:13:59.572Z,101168.31
2023-05-15T04:16:29.750Z,101164.56
2023-05-15T04:18:59.830Z,101167.96
2023-05-15T04:21:30.246Z,101168.38
2023-05-15T04:24:00.253Z,101166.98
2023-05-15T04:26:30.573Z,101166.82
2023-05-15T04:29:04.498Z,101169.63
2023-05-15T04:31:31.437Z,101171.46
2023-05-15T04:34:02.012Z,101169.68
2023-05-15T04:36:32.706Z,101172.75
2023-05-15T04:39:03.556Z,101164.83
2023-05-15T04:41:34.399Z,101163.53
2023-05-15T04:44:04.445Z,101159.50
2023-05-15T04:46:35.108Z,101160.32
2023-05-15T04:49:05.064Z,101160.95
2023-05-15T04:51:35.493Z,101168.52
2023-05-15T04:54:05.701Z,101169.02
2023-05-15T04:56:36.206Z,101169.07
2023-05-15T04:59:06.761Z,101167.82
2023-05-15T05:01:37.516Z,101172.36
2023-05-15T05:04:07.995Z,101171.71
2023-05-15T05:06:38.459Z,101172.83
2023-05-15T05:09:08.975Z,101175.39
2023-05-15T05:11:39.844Z,101170.94
2023-05-15T05:14:10.764Z,101178.04
2023-05-15T05:16:41.046Z,101180.39
2023-05-15T05:19:11.510Z,101180.93
2023-05-15T05:21:41.958Z,101179.02
2023-05-15T05:24:12.502Z,101181.67
2023-05-15T05:26:42.965Z,101183.37
2023-05-15T05:29:13.451Z,101181.99
2023-05-15T05:31:44.272Z,101182.60
2023-05-15T05:34:14.937Z,101181.37
2023-05-15T05:36:45.050Z,101180.83
2023-05-15T05:39:15.402Z,101184.86
2023-05-15T05:41:45.827Z,101183.21
2023-05-15T05:44:16.079Z,101180.22
2023-05-15T05:46:46.479Z,101180.05
2023-05-15T05:49:17.030Z,101177.39
2023-05-15T05:51:47.772Z,101176.33
2023-05-15T05:54:18.315Z,101176.81
2023-05-15T05:56:48.667Z,101183.00
2023-05-15T05:59:18.620Z,101185.96
2023-05-15T06:01:49.359Z,101187.37
2023-05-15T06:04:19.428Z,101190.01
2023-05-15T06:06:49.415Z,101195.23
2023-05-15T06:09:19.547Z,101194.49
2023-05-15T06:11:49.682Z,101194.89
2023-05-15T06:14:21.200Z,101188.43
2023-05-15T06:16:50.525Z,101186.87
2023-05-15T06:19:20.966Z,101188.67
2023-05-15T06:21:51.361Z,101185.93
2023-05-15T06:24:21.339Z,101183.42
2023-05-15T06:26:52.459Z,101184.25
2023-05-15T06:29:22.217Z,101185.52
2023-05-15T06:31:52.765Z,101184.22
2023-05-15T06:34:23.294Z,101181.34
2023-05-15T06:36:53.411Z,101180.34
2023-05-15T06:39:23.895Z,101184.13
2023-05-15T06:41:54.099Z,101186.23
2023-05-15T06:44:25.681Z,101188.03
2023-05-15T06:46:55.395Z,101191.39
2023-05-15T06:49:25.304Z,101187.66
2023-05-15T06:51:56.110Z,101192.15
2023-05-15T06:54:26.436Z,101192.39
2023-05-15T06:56:57.173Z,101195.36
2023-05-15T06:59:27.917Z,101200.26
2023-05-15T07:01:58.350Z,101201.31
2023-05-15T07:04:28.428Z,101203.07
2023-05-15T07:06:58.663Z,101207.47
2023-05-15T07:09:28.998Z,101203.95
2023-05-15T07:11:59.284Z,101205.32
2023-05-15T07:14:29.896Z,101203.88
2023-05-15T07:17:00.194Z,101202.19
2023-05-15T07:19:30.903Z,101202.61
2023-05-15T07:22:03.329Z,101201.72
2023-05-15T07:24:32.484Z,101198.72
2023-05-15T07:27:03.197Z,101198.72
2023-05-15T07:29:33.301Z,101198.27
2023-05-15T07:32:03.954Z,101201.07
2023-05-15T07:34:34.500Z,101203.66
2023-05-15T07:37:05.075Z,101208.53
2023-05-15T07:39:35.452Z,101206.39
2023-05-15T07:42:06.174Z,101202.77
2023-05-15T07:44:36.191Z,101203.99
2023-05-15T07:47:06.416Z,101203.27
2023-05-15T07:49:37.031Z,101203.65
2023-05-15T07:52:07.671Z,101204.60
2023-05-15T07:54:37.688Z,101204.33
2023-05-15T07:57:08.293Z,101200.54
2023-05-15T07:59:38.933Z,101203.36
2023-05-15T08:02:09.163Z,101205.64
2023-05-15T08:04:39.548Z,101204.98
2023-05-15T08:07:10.052Z,101206.72
2023-05-15T08:09:40.387Z,101205.28
2023-05-15T08:12:10.524Z,101204.16
2023-05-15T08:14:40.821Z,101205.12
2023-05-15T08:17:10.631Z,101197.32
2023-05-15T08:19:40.664Z,101201.14
2023-05-15T08:22:10.928Z,101193.12
2023-05-15T08:24:41.788Z,101192.36
2023-05-15T08:27:12.430Z,101194.82
2023-05-15T08:29:42.998Z,101194.86
2023-05-15T08:32:13.673Z,101194.64
2023-05-15T08:34:44.598Z,101194.98
2023-05-15T08:37:14.850Z,101195.00
2023-05-15T08:39:45.790Z,101198.74
2023-05-15T08:42:16.239Z,101204.06
2023-05-15T08:44:46.837Z,101201.96
2023-05-15T08:47:17.034Z,101198.72
2023-05-15T08:49:47.281Z,101196.90
2023-05-15T08:52:17.414Z,101198.25
2023-05-15T08:54:48.544Z,101191.04
2023-05-15T08:57:17.533Z,101192.14
2023-05-15T08:59:47.712Z,101188.63
2023-05-15T09:02:17.915Z,101184.23
2023-05-15T09:04:48.297Z,101182.85
2023-05-15T09:07:18.500Z,101183.55
2023-05-15T09:09:49.214Z,101181.90
2023-05-15T09:12:19.560Z,101178.89
2023-05-15T09:14:49.709Z,101182.39
2023-05-15T09:17:20.222Z,101188.73
2023-05-15T09:19:50.894Z,101188.24
2023-05-15T09:22:20.847Z,101194.42
2023-05-15T09:24:51.445Z,101189.28
2023-05-15T09:27:22.222Z,101188.85
2023-05-15T09:29:53.004Z,101188.43
2023-05-15T09:32:23.454Z,101186.31
2023-05-15T09:34:53.743Z,101181.26
2023-05-15T09:37:24.096Z,101180.19
2023-05-15T09:39:54.489Z,101174.61
2023-05-15T09:42:24.958Z,101175.15
2023-05-15T09:44:55.049Z,101172.75
2023-05-15T09:47:25.370Z,101172.56
2023-05-15T09:49:55.861Z,101171.96
2023-05-15T09:52:26.181Z,101167.46
2023-05-15T09:54:56.641Z,101172.01
2023-05-15T09:57:27.251Z,101170.30
2023-05-15T09:59:57.731Z,101166.35
2023-05-15T10:02:28.294Z,101163.38
2023-05-15T10:04:58.633Z,101161.45
2023-05-15T10:07:29.094Z,101159.92
2023-05-15T10:09:59.204Z,101159.21
2023-05-15T10:12:29.871Z,101158.57
2023-05-15T10:15:00.478Z,101157.76
2023-05-15T10:17:30.734Z,101158.36
2023-05-15T10:20:01.545Z,101161.51
2023-05-15T10:22:31.660Z,101158.36
2023-05-15T10:25:01.885Z,101155.15
2023-05-15T10:27:32.055Z,101155.26
2023-05-15T10:30:02.843Z,101152.58
2023-05-15T10:32:32.944Z,101148.96
2023-05-15T10:35:03.658Z,101150.37
2023-05-15T10:37:33.738Z,101153.55
2023-05-15T10:40:04.348Z,101148.67
2023-05-15T10:42:34.665Z,101141.35
2023-05-15T10:45:04.956Z,101138.36
2023-05-15T10:47:35.485Z,101140.25
2023-05-15T10:50:05.641Z,101140.06
2023-05-15T10:52:35.685Z,101138.72
2023-05-15T10:55:06.568Z,101137.87
2023-05-15T10:57:36.892Z,101134.76
2023-05-15T11:00:07.858Z,101131.75
2023-05-15T11:02:37.892Z,101128.82
2023-05-15T11:05:07.866Z,101129.91
2023-05-15T11:07:37.903Z,101130.91
2023-05-15T11:10:08.502Z,101125.30
2023-05-15T11:12:38.809Z,101122.72
2023-05-15T11:15:09.326Z,101113.85
2023-05-15T11:17:39.943Z,101109.61
2023-05-15T11:20:10.376Z,101106.61
2023-05-15T11:22:40.371Z,101108.71
2023-05-15T11:25:10.494Z,101108.93
2023-05-15T11:27:40.637Z,101109.37
2023-05-15T11:30:10.739Z,101107.00
2023-05-15T11:32:40.961Z,101102.16
2023-05-15T11:35:11.454Z,101090.33
2023-05-15T11:37:42.024Z,101093.63
2023-05-15T11:40:12.567Z,101092.58
2023-05-15T11:42:43.388Z,101084.86
2023-05-15T11:45:13.714Z,101084.22
2023-05-15T11:47:44.312Z,101079.79
2023-05-15T11:50:14.631Z,101080.36
2023-05-15T11:52:45.205Z,101074.22
2023-05-15T11:55:15.215Z,101073.14
2023-05-15T11:57:46.054Z,101065.51
2023-05-15T12:00:16.619Z,101070.17
2023-05-15T12:02:46.648Z,101058.78
2023-05-15T12:05:16.845Z,101065.21
2023-05-15T12:07:46.832Z,101059.52
2023-05-15T12:10:17.201Z,101058.86
2023-05-15T12:12:47.367Z,101051.49
2023-05-15T12:15:17.950Z,101064.66
2023-05-15T12:17:48.879Z,101055.57
2023-05-15T12:20:19.668Z,101055.17
2023-05-15T12:22:49.918Z,101048.89
2023-05-15T12:25:20.787Z,101047.20
2023-05-15T12:27:51.064Z,101048.25
2023-05-15T12:30:21.188Z,101044.77
2023-05-15T12:32:51.721Z,101039.33
2023-05-15T12:35:22.030Z,101043.01
2023-05-15T12:37:52.200Z,101041.25
2023-05-15T12:40:23.044Z,101042.75
2023-05-15T12:42:53.252Z,101046.98
2023-05-15T12:45:23.513Z,101037.08
2023-05-15T12:47:54.280Z,101042.02
2023-05-15T12:50:24.826Z,101048.81
2023-05-15T12:52:55.450Z,101038.68
2023-05-15T12:55:25.795Z,101042.48
2023-05-15T12:57:56.331Z,101043.94
2023-05-15T13:00:26.729Z,101043.36
2023-05-15T13:02:56.675Z,101037.84
2023-05-15T13:05:26.968Z,101041.49
2023-05-15T13:07:57.205Z,101038.07
2023-05-15T13:10:27.829Z,101042.10
2023-05-15T13:12:57.762Z,101038.81
2023-05-15T13:15:27.891Z,101041.37
2023-05-15T13:17:58.728Z,101039.03
2023-05-15T13:20:29.542Z,101040.43
2023-05-15T13:23:00.140Z,101031.90
2023-05-15T13:25:32.136Z,101030.79
2023-05-15T13:28:00.955Z,101026.88
2023-05-15T13:30:31.021Z,101035.88
2023-05-15T13:33:01.703Z,101029.17
2023-05-15T13:35:32.298Z,101036.76
2023-05-15T13:38:02.337Z,101038.81
2023-05-15T13:40:32.949Z,101041.84
2023-05-15T13:43:03.237Z,101039.82
2023-05-15T13:45:33.329Z,101038.32
2023-05-15T13:48:04.250Z,101036.61
2023-05-15T13:50:34.361Z,101044.98
2023-05-15T13:53:04.532Z,101041.22
2023-05-15T13:55:34.576Z,101042.02
2023-05-15T13:58:04.666Z,101038.25
2023-05-15T14:00:35.202Z,101039.06
2023-05-15T14:03:06.118Z,101041.15
2023-05-15T14:05:36.284Z,101044.77
2023-05-15T14:08:06.243Z,101037.26
2023-05-15T14:10:36.371Z,101042.29
2023-05-15T14:13:06.822Z,101035.00
2023-05-15T14:15:37.185Z,101026.81
2023-05-15T14:18:07.400Z,101034.28
2023-05-15T14:20:37.732Z,101032.47
2023-05-15T14:23:08.492Z,101030.28
2023-05-15T14:25:39.327Z,101031.00
2023-05-15T14:28:09.864Z,101037.52
2023-05-15T14:30:40.632Z,101039.53
2023-05-15T14:33:11.617Z,101037.08
2023-05-15T14:35:42.441Z,101035.54
2023-05-15T14:38:12.518Z,101039.29
2023-05-15T14:40:42.764Z,101038.68
2023-05-15T14:43:13.410Z,101039.68
2023-05-15T14:45:44.096Z,101038.70
2023-05-15T14:48:14.547Z,101047.65
2023-05-15T14:50:45.424Z,101040.56
2023-05-15T14:53:15.757Z,101038.43
2023-05-15T14:55:46.352Z,101041.18
2023-05-15T14:58:16.897Z,101044.58
2023-05-15T15:00:46.915Z,101036.89
2023-05-15T15:03:17.609Z,101036.79
2023-05-15T15:05:47.857Z,101040.65
2023-05-15T15:08:18.156Z,101041.82
2023-05-15T15:10:49.026Z,101043.11
2023-05-15T15:13:19.538Z,101046.47
2023-05-15T15:15:50.179Z,101045.11
2023-05-15T15:18:20.541Z,101049.38
2023-05-15T15:20:50.802Z,101046.34
2023-05-15T15:23:21.417Z,101038.47
2023-05-15T15:25:52.340Z,101041.79
2023-05-15T15:28:22.615Z,101043.19
2023-05-15T15:30:52.659Z,101039.36
2023-05-15T15:33:22.969Z,101043.02
2023-05-15T15:35:53.909Z,101045.17
2023-05-15T15:38:24.221Z,101050.68
2023-05-15T15:40:54.758Z,101054.88
2023-05-15T15:43:25.094Z,101059.29
2023-05-15T15:45:55.180Z,101062.42
2023-05-15T15:48:25.432Z,101065.55
2023-05-15T15:50:55.849Z,101061.62
2023-05-15T15:53:26.247Z,101061.15
2023-05-15T15:55:56.710Z,101060.56
2023-05-15T15:58:26.995Z,101066.55
2023-05-15T16:00:57.361Z,101070.10
2023-05-15T16:03:27.788Z,101074.41
2023-05-15T16:05:59.954Z,101077.58
2023-05-15T16:08:28.024Z,101088.80
2023-05-15T16:10:58.122Z,101087.11
2023-05-15T16:13:29.100Z,101092.00
2023-05-15T16:15:59.023Z,101096.21
2023-05-15T16:18:29.704Z,101091.91
2023-05-15T16:20:59.874Z,101086.70
2023-05-15T16:23:30.098Z,101095.06
2023-05-15T16:26:00.470Z,101100.30
2023-05-15T16:28:30.976Z,101105.25
2023-05-15T16:31:01.822Z,101105.03
2023-05-15T16:33:32.094Z,101112.11
2023-05-15T16:36:02.525Z,101116.28
2023-05-15T16:38:32.899Z,101117.59
2023-05-15T16:41:03.262Z,101114.99
2023-05-15T16:43:33.588Z,101123.99
2023-05-15T16:46:03.604Z,101122.55
2023-05-15T16:48:33.957Z,101129.56
2023-05-15T16:51:04.381Z,101135.92
2023-05-15T16:53:34.733Z,101145.17
2023-05-15T16:56:05.287Z,101143.88
2023-05-15T16:58:35.522Z,101143.40
2023-05-15T17:01:06.281Z,101152.62
2023-05-15T17:03:36.495Z,101153.66
2023-05-15T17:06:06.838Z,101160.50
2023-05-15T17:08:36.788Z,101166.64
2023-05-15T17:11:07.512Z,101175.60
2023-05-15T17:13:37.934Z,101173.83
2023-05-15T17:16:08.439Z,101176.27
2023-05-15T17:18:38.826Z,101183.67
2023-05-15T17:21:09.246Z,101175.76
2023-05-15T17:23:39.645Z,101176.55
2023-05-15T17:26:10.166Z,101174.28
2023-05-15T17:28:40.207Z,101174.52
2023-05-15T17:31:10.658Z,101184.06
2023-05-15T17:33:40.790Z,101188.40
2023-05-15T17:36:10.902Z,101190.93
2023-05-15T17:38:41.039Z,101197.32
2023-05-15T17:41:11.467Z,101198.05
2023-05-15T17:43:41.908Z,101199.79
2023-05-15T17:46:12.441Z,101207.99
2023-05-15T17:48:42.785Z,101213.13
2023-05-15T17:51:13.240Z,101219.35
2023-05-15T17:53:43.680Z,101222.05
2023-05-15T17:56:14.153Z,101221.03
2023-05-15T17:58:44.611Z,101227.13
2023-05-15T18:01:15.126Z,101226.14
2023-05-15T18:03:45.252Z,101229.94
2023-05-15T18:06:15.443Z,101228.82
2023-05-15T18:08:45.845Z,101231.96
2023-05-15T18:11:22.437Z,101238.22
2023-05-15T18:13:46.688Z,101246.55
2023-05-15T18:16:17.032Z,101250.47
2023-05-15T18:18:47.901Z,101256.60
2023-05-15T18:21:18.340Z,101262.73
2023-05-15T18:23:48.487Z,101273.99
2023-05-15T18:26:18.850Z,101259.91
2023-05-15T18:28:49.615Z,101268.52
2023-05-15T18:31:20.552Z,101274.47
2023-05-15T18:33:51.213Z,101277.32
2023-05-15T18:36:21.571Z,101274.62
2023-05-15T18:38:52.080Z,101273.48
2023-05-15T18:41:22.578Z,101276.22
2023-05-15T18:43:52.986Z,101282.64
2023-05-15T18:46:23.565Z,101288.76
2023-05-15T18:48:53.801Z,101290.81
2023-05-15T18:51:24.004Z,101294.33
2023-05-15T18:53:54.362Z,101297.18
2023-05-15T18:56:24.699Z,101303.83
2023-05-15T18:58:55.042Z,101307.15
2023-05-15T19:01:25.422Z,101311.59
2023-05-15T19:03:55.420Z,101314.43
2023-05-15T19:06:25.430Z,101309.89
2023-05-15T19:08:55.643Z,101313.64
2023-05-15T19:11:26.142Z,101321.49
2023-05-15T19:13:56.610Z,101325.05
2023-05-15T19:16:27.323Z,101333.14
2023-05-15T19:18:57.741Z,101336.52
2023-05-15T19:21:27.932Z,101338.67
2023-05-15T19:23:58.539Z,101348.26
2023-05-15T19:26:29.128Z,101344.41
2023-05-15T19:28:59.732Z,101362.57
2023-05-15T19:31:32.042Z,101354.62
2023-05-15T19:34:00.474Z,101359.48
2023-05-15T19:36:30.628Z,101368.73
2023-05-15T19:39:01.317Z,101365.23
2023-05-15T19:41:31.868Z,101367.04
2023-05-15T19:44:02.338Z,101373.17
2023-05-15T19:46:33.286Z,101371.32
2023-05-15T19:49:03.893Z,101375.91
2023-05-15T19:51:34.051Z,101377.56
2023-05-15T19:54:04.239Z,101374.57
2023-05-15T19:56:34.555Z,101376.30
2023-05-15T19:59:05.040Z,101373.98
2023-05-15T20:01:35.670Z,101383.18
2023-05-15T20:04:06.493Z,101387.43
2023-05-15T20:06:37.289Z,101390.52
2023-05-15T20:09:08.027Z,101389.40
2023-05-15T20:11:38.081Z,101389.79
2023-05-15T20:14:08.969Z,101387.68
2023-05-15T20:16:39.693Z,101384.23
2023-05-15T20:19:09.789Z,101387.45
2023-05-15T20:21:40.072Z,101390.89
2023-05-15T20:24:10.541Z,101391.02
2023-05-15T20:26:40.649Z,101390.32
2023-05-15T20:29:10.996Z,101394.01
2023-05-15T20:31:41.659Z,101398.09
2023-05-15T20:34:11.939Z,101399.66
2023-05-15T20:36:42.094Z,101402.07
2023-05-15T20:39:12.112Z,101411.16
2023-05-15T20:41:42.326Z,101412.81
2023-05-15T20:44:13.203Z,101415.02
2023-05-15T20:46:43.629Z,101415.21
2023-05-15T20:49:13.833Z,101416.66
2023-05-15T20:51:44.026Z,101419.88
2023-05-15T20:54:14.794Z,101423.15
2023-05-15T20:56:45.497Z,101423.00
2023-05-15T20:59:16.165Z,101420.88
2023-05-15T21:01:46.936Z,101419.45
2023-05-15T21:04:17.727Z,101418.72
2023-05-15T21:06:47.835Z,101417.49
2023-05-15T21:09:18.459Z,101425.48
2023-05-15T21:11:48.658Z,101427.00
2023-05-15T21:14:18.916Z,101430.28
2023-05-15T21:16:49.629Z,101434.31
2023-05-15T21:19:20.447Z,101435.55
2023-05-15T21:21:51.042Z,101441.64
2023-05-15T21:24:21.373Z,101439.27
2023-05-15T21:26:52.193Z,101441.69
2023-05-15T21:29:22.459Z,101440.10
2023-05-15T21:31:52.794Z,101441.96
2023-05-15T21:34:22.810Z,101444.96
2023-05-15T21:36:52.969Z,101447.62
2023-05-15T21:39:23.679Z,101449.76
2023-05-15T21:41:53.964Z,101446.92
2023-05-15T21:44:24.732Z,101446.32
2023-05-15T21:46:55.490Z,101445.93
2023-05-15T21:49:25.929Z,101445.20
2023-05-15T21:51:56.485Z,101443.72
2023-05-15T21:54:26.968Z,101445.78
2023-05-15T21:56:57.169Z,101450.57
2023-05-15T21:59:27.716Z,101452.40
2023-05-15T22:01:58.369Z,101450.90
2023-05-15T22:04:28.781Z,101449.90
2023-05-15T22:06:59.349Z,101448.46
2023-05-15T22:09:29.859Z,101447.86
2023-05-15T22:12:00.396Z,101445.90
2023-05-15T22:14:30.719Z,101444.96
2023-05-15T22:17:01.180Z,101441.75
2023-05-15T22:19:33.475Z,101442.42
2023-05-15T22:22:02.242Z,101442.66
2023-05-15T22:24:32.750Z,101439.53
2023-05-15T22:27:03.293Z,101439.96
2023-05-15T22:29:33.847Z,101442.74
2023-05-15T22:32:04.424Z,101442.99
2023-05-15T22:34:34.924Z,101441.76
2023-05-15T22:37:05.472Z,101440.74
2023-05-15T22:39:35.990Z,101437.17
2023-05-15T22:42:06.559Z,101445.46
2023-05-15T22:44:37.102Z,101449.56
2023-05-15T22:47:07.704Z,101454.44
2023-05-15T22:49:38.190Z,101462.31
2023-05-15T22:52:08.742Z,101468.53
2023-05-15T22:54:39.263Z,101472.20
2023-05-15T22:57:09.834Z,101477.71
2023-05-15T22:59:40.363Z,101477.26
2023-05-15T23:02:10.932Z,101480.29
2023-05-15T23:04:41.475Z,101488.80
2023-05-15T23:07:12.056Z,101488.86
2023-05-15T23:09:42.597Z,101486.66
2023-05-15T23:12:13.172Z,101488.46
2023-05-15T23:14:43.740Z,101486.67
2023-05-15T23:17:14.295Z,101488.19
2023-05-15T23:19:44.859Z,101489.70
2023-05-15T23:22:15.473Z,101492.37
2023-05-15T23:24:45.991Z,101499.59
2023-05-15T23:27:16.581Z,101504.95
2023-05-15T23:29:47.164Z,101506.39
2023-05-15T23:32:17.734Z,101505.53
2023-05-15T23:34:48.313Z,101508.25
2023-05-15T23:37:18.918Z,101509.18
2023-05-15T23:39:49.470Z,101508.46
2023-05-15T23:42:20.049Z,101509.02
2023-05-15T23:44:50.623Z,101509.67
2023-05-15T23:47:21.188Z,101509.94
2023-05-15T23:49:51.745Z,101515.11
2023-05-15T23:52:22.326Z,101518.79
2023-05-15T23:54:52.892Z,101519.86
2023-05-15T23:57:23.474Z,101515.31
2023-05-15T23:59:54.049Z,101513.45
